sensor_id;sensor_type;location;lat;lon;timestamp;P1;durP1;ratioP1;P2;durP2;ratioP2
70313;SDS011;57725;47.526;18.986;2023-01-28T00:00:16;21.02;;;12.82;;
70313;SDS011;57725;47.526;18.986;2023-01-28T00:02:42;23.90;;;13.57;;
70313;SDS011;57725;47.526;18.986;2023-01-28T00:05:09;20.70;;;12.48;;
70313;SDS011;57725;47.526;18.986;2023-01-28T00:07:37;21.27;;;13.30;;
70313;SDS011;57725;47.526;18.986;2023-01-28T00:10:02;19.05;;;12.60;;
70313;SDS011;57725;47.526;18.986;2023-01-28T00:12:28;22.38;;;13.55;;
70313;SDS011;57725;47.526;18.986;2023-01-28T00:14:54;23.75;;;13.52;;
70313;SDS011;57725;47.526;18.986;2023-01-28T00:17:21;20.73;;;12.85;;
70313;SDS011;57725;47.526;18.986;2023-01-28T00:19:47;21.45;;;12.70;;
70313;SDS011;57725;47.526;18.986;2023-01-28T00:22:12;22.42;;;13.98;;
70313;SDS011;57725;47.526;18.986;2023-01-28T00:24:40;22.92;;;13.52;;
70313;SDS011;57725;47.526;18.986;2023-01-28T00:27:05;21.70;;;13.45;;
70313;SDS011;57725;47.526;18.986;2023-01-28T00:29:31;21.20;;;12.98;;
70313;SDS011;57725;47.526;18.986;2023-01-28T00:31:58;20.90;;;12.95;;
70313;SDS011;57725;47.526;18.986;2023-01-28T00:34:29;19.80;;;12.85;;
70313;SDS011;57725;47.526;18.986;2023-01-28T00:36:54;20.83;;;13.15;;
70313;SDS011;57725;47.526;18.986;2023-01-28T00:39:23;22.23;;;13.65;;
70313;SDS011;57725;47.526;18.986;2023-01-28T00:41:50;24.17;;;14.30;;
70313;SDS011;57725;47.526;18.986;2023-01-28T00:44:18;21.45;;;13.13;;
70313;SDS011;57725;47.526;18.986;2023-01-28T00:46:44;23.90;;;14.27;;
70313;SDS011;57725;47.526;18.986;2023-01-28T00:49:13;22.42;;;13.68;;
70313;SDS011;57725;47.526;18.986;2023-01-28T00:51:38;22.85;;;13.32;;
70313;SDS011;57725;47.526;18.986;2023-01-28T00:54:04;23.63;;;13.80;;
70313;SDS011;57725;47.526;18.986;2023-01-28T00:56:30;22.65;;;14.30;;
70313;SDS011;57725;47.526;18.986;2023-01-28T00:58:55;22.63;;;14.20;;
70313;SDS011;57725;47.526;18.986;2023-01-28T01:01:22;24.73;;;14.40;;
70313;SDS011;57725;47.526;18.986;2023-01-28T01:03:49;21.90;;;12.88;;
70313;SDS011;57725;47.526;18.986;2023-01-28T01:06:26;23.33;;;13.38;;
70313;SDS011;57725;47.526;18.986;2023-01-28T01:08:53;25.25;;;14.60;;
70313;SDS011;57725;47.526;18.986;2023-01-28T01:11:19;22.55;;;13.57;;
70313;SDS011;57725;47.526;18.986;2023-01-28T01:13:48;21.70;;;13.48;;
70313;SDS011;57725;47.526;18.986;2023-01-28T01:16:15;23.02;;;14.23;;
70313;SDS011;57725;47.526;18.986;2023-01-28T01:18:41;23.85;;;12.85;;
70313;SDS011;57725;47.526;18.986;2023-01-28T01:21:16;24.00;;;13.68;;
70313;SDS011;57725;47.526;18.986;2023-01-28T01:23:46;23.75;;;14.75;;
70313;SDS011;57725;47.526;18.986;2023-01-28T01:26:11;26.40;;;14.60;;
70313;SDS011;57725;47.526;18.986;2023-01-28T01:28:39;22.15;;;14.63;;
70313;SDS011;57725;47.526;18.986;2023-01-28T01:31:12;24.65;;;14.95;;
70313;SDS011;57725;47.526;18.986;2023-01-28T01:33:42;24.08;;;14.80;;
70313;SDS011;57725;47.526;18.986;2023-01-28T01:36:11;22.98;;;14.18;;
70313;SDS011;57725;47.526;18.986;2023-01-28T01:38:39;23.80;;;13.98;;
70313;SDS011;57725;47.526;18.986;2023-01-28T01:41:05;22.08;;;14.23;;
70313;SDS011;57725;47.526;18.986;2023-01-28T01:43:45;24.95;;;14.15;;
70313;SDS011;57725;47.526;18.986;2023-01-28T01:49:00;26.50;;;15.38;;
70313;SDS011;57725;47.526;18.986;2023-01-28T01:51:32;24.17;;;14.25;;
70313;SDS011;57725;47.526;18.986;2023-01-28T01:53:59;22.55;;;14.38;;
70313;SDS011;57725;47.526;18.986;2023-01-28T01:56:29;23.90;;;15.35;;
70313;SDS011;57725;47.526;18.986;2023-01-28T01:58:59;27.30;;;15.65;;
70313;SDS011;57725;47.526;18.986;2023-01-28T02:01:28;24.38;;;14.30;;
70313;SDS011;57725;47.526;18.986;2023-01-28T02:04:02;22.90;;;14.00;;
70313;SDS011;57725;47.526;18.986;2023-01-28T02:06:32;26.50;;;15.30;;
70313;SDS011;57725;47.526;18.986;2023-01-28T02:08:59;23.40;;;14.27;;
70313;SDS011;57725;47.526;18.986;2023-01-28T02:11:25;23.80;;;14.07;;
70313;SDS011;57725;47.526;18.986;2023-01-28T02:13:57;24.95;;;14.45;;
70313;SDS011;57725;47.526;18.986;2023-01-28T02:16:30;26.95;;;14.68;;
70313;SDS011;57725;47.526;18.986;2023-01-28T02:18:58;24.48;;;14.45;;
70313;SDS011;57725;47.526;18.986;2023-01-28T02:32:14;25.88;;;14.93;;
70313;SDS011;57725;47.526;18.986;2023-01-28T02:34:55;24.67;;;15.15;;
70313;SDS011;57725;47.526;18.986;2023-01-28T02:37:26;25.65;;;15.68;;
70313;SDS011;57725;47.526;18.986;2023-01-28T02:40:03;26.13;;;15.43;;
70313;SDS011;57725;47.526;18.986;2023-01-28T02:42:36;28.48;;;15.95;;
70313;SDS011;57725;47.526;18.986;2023-01-28T02:47:46;25.05;;;15.68;;
70313;SDS011;57725;47.526;18.986;2023-01-28T02:50:25;26.55;;;15.40;;
70313;SDS011;57725;47.526;18.986;2023-01-28T02:53:06;23.38;;;14.27;;
70313;SDS011;57725;47.526;18.986;2023-01-28T03:01:54;25.77;;;15.88;;
70313;SDS011;57725;47.526;18.986;2023-01-28T03:04:13;25.30;;;15.30;;
70313;SDS011;57725;47.526;18.986;2023-01-28T03:06:49;24.15;;;14.73;;
70313;SDS011;57725;47.526;18.986;2023-01-28T03:09:20;25.88;;;14.77;;
70313;SDS011;57725;47.526;18.986;2023-01-28T03:14:56;26.17;;;15.90;;
70313;SDS011;57725;47.526;18.986;2023-01-28T03:17:44;26.33;;;14.63;;
70313;SDS011;57725;47.526;18.986;2023-01-28T03:20:33;28.00;;;16.67;;
70313;SDS011;57725;47.526;18.986;2023-01-28T03:23:26;29.90;;;16.60;;
70313;SDS011;57725;47.526;18.986;2023-01-28T03:26:15;29.05;;;16.10;;
70313;SDS011;57725;47.526;18.986;2023-01-28T03:29:07;28.38;;;16.08;;
70313;SDS011;57725;47.526;18.986;2023-01-28T03:31:56;24.27;;;14.13;;
70313;SDS011;57725;47.526;18.986;2023-01-28T03:34:55;28.52;;;16.67;;
70313;SDS011;57725;47.526;18.986;2023-01-28T03:37:38;28.83;;;16.27;;
70313;SDS011;57725;47.526;18.986;2023-01-28T03:40:05;26.08;;;16.08;;
70313;SDS011;57725;47.526;18.986;2023-01-28T03:42:35;29.23;;;17.20;;
70313;SDS011;57725;47.526;18.986;2023-01-28T03:45:03;29.27;;;16.75;;
70313;SDS011;57725;47.526;18.986;2023-01-28T03:47:31;31.63;;;17.35;;
70313;SDS011;57725;47.526;18.986;2023-01-28T03:49:58;28.98;;;16.58;;
70313;SDS011;57725;47.526;18.986;2023-01-28T03:52:25;26.88;;;15.68;;
70313;SDS011;57725;47.526;18.986;2023-01-28T03:54:54;27.50;;;16.00;;
70313;SDS011;57725;47.526;18.986;2023-01-28T03:57:21;24.73;;;15.57;;
70313;SDS011;57725;47.526;18.986;2023-01-28T03:59:47;27.67;;;16.08;;
70313;SDS011;57725;47.526;18.986;2023-01-28T04:02:14;27.33;;;16.42;;
70313;SDS011;57725;47.526;18.986;2023-01-28T04:04:42;27.17;;;16.45;;
70313;SDS011;57725;47.526;18.986;2023-01-28T04:07:09;27.17;;;16.58;;
70313;SDS011;57725;47.526;18.986;2023-01-28T04:09:36;27.88;;;16.48;;
70313;SDS011;57725;47.526;18.986;2023-01-28T04:12:04;30.25;;;16.50;;
70313;SDS011;57725;47.526;18.986;2023-01-28T04:14:30;31.65;;;17.27;;
70313;SDS011;57725;47.526;18.986;2023-01-28T04:16:56;28.17;;;16.60;;
70313;SDS011;57725;47.526;18.986;2023-01-28T04:19:22;29.35;;;17.23;;
70313;SDS011;57725;47.526;18.986;2023-01-28T04:21:49;28.13;;;17.17;;
70313;SDS011;57725;47.526;18.986;2023-01-28T04:24:18;28.67;;;16.40;;
70313;SDS011;57725;47.526;18.986;2023-01-28T04:26:43;32.13;;;17.48;;
70313;SDS011;57725;47.526;18.986;2023-01-28T04:29:08;32.42;;;17.10;;
70313;SDS011;57725;47.526;18.986;2023-01-28T04:31:36;30.73;;;17.80;;
70313;SDS011;57725;47.526;18.986;2023-01-28T04:34:02;30.42;;;17.95;;
70313;SDS011;57725;47.526;18.986;2023-01-28T04:36:29;28.98;;;16.77;;
70313;SDS011;57725;47.526;18.986;2023-01-28T04:38:57;28.83;;;18.05;;
70313;SDS011;57725;47.526;18.986;2023-01-28T04:41:23;31.77;;;17.42;;
70313;SDS011;57725;47.526;18.986;2023-01-28T04:43:53;31.10;;;18.10;;
70313;SDS011;57725;47.526;18.986;2023-01-28T04:46:23;31.55;;;18.05;;
70313;SDS011;57725;47.526;18.986;2023-01-28T04:48:51;28.58;;;17.65;;
70313;SDS011;57725;47.526;18.986;2023-01-28T04:51:19;31.58;;;17.35;;
70313;SDS011;57725;47.526;18.986;2023-01-28T04:53:45;29.40;;;17.02;;
70313;SDS011;57725;47.526;18.986;2023-01-28T04:56:10;32.30;;;18.80;;
70313;SDS011;57725;47.526;18.986;2023-01-28T04:58:35;27.90;;;17.35;;
70313;SDS011;57725;47.526;18.986;2023-01-28T05:01:03;33.78;;;18.45;;
70313;SDS011;57725;47.526;18.986;2023-01-28T05:03:29;26.58;;;17.05;;
70313;SDS011;57725;47.526;18.986;2023-01-28T05:05:54;31.52;;;18.40;;
70313;SDS011;57725;47.526;18.986;2023-01-28T05:08:22;32.72;;;18.08;;
70313;SDS011;57725;47.526;18.986;2023-01-28T05:10:49;31.77;;;18.10;;
70313;SDS011;57725;47.526;18.986;2023-01-28T05:13:14;31.90;;;18.33;;
70313;SDS011;57725;47.526;18.986;2023-01-28T05:15:40;33.05;;;18.98;;
70313;SDS011;57725;47.526;18.986;2023-01-28T05:18:07;32.88;;;19.42;;
70313;SDS011;57725;47.526;18.986;2023-01-28T05:20:33;29.98;;;17.58;;
70313;SDS011;57725;47.526;18.986;2023-01-28T05:23:00;32.03;;;17.02;;
70313;SDS011;57725;47.526;18.986;2023-01-28T05:25:26;30.25;;;17.58;;
70313;SDS011;57725;47.526;18.986;2023-01-28T05:27:54;30.63;;;18.70;;
70313;SDS011;57725;47.526;18.986;2023-01-28T05:30:21;33.85;;;18.67;;
70313;SDS011;57725;47.526;18.986;2023-01-28T05:32:47;33.03;;;18.30;;
70313;SDS011;57725;47.526;18.986;2023-01-28T05:35:12;35.53;;;19.25;;
70313;SDS011;57725;47.526;18.986;2023-01-28T05:37:37;32.08;;;18.67;;
70313;SDS011;57725;47.526;18.986;2023-01-28T05:40:05;31.73;;;18.85;;
70313;SDS011;57725;47.526;18.986;2023-01-28T05:42:31;31.42;;;17.88;;
70313;SDS011;57725;47.526;18.986;2023-01-28T05:44:56;32.97;;;18.80;;
70313;SDS011;57725;47.526;18.986;2023-01-28T05:47:27;32.88;;;18.00;;
70313;SDS011;57725;47.526;18.986;2023-01-28T05:49:52;32.10;;;18.48;;
70313;SDS011;57725;47.526;18.986;2023-01-28T05:52:20;31.38;;;18.20;;
70313;SDS011;57725;47.526;18.986;2023-01-28T05:54:46;31.80;;;19.30;;
70313;SDS011;57725;47.526;18.986;2023-01-28T05:57:13;33.58;;;19.27;;
70313;SDS011;57725;47.526;18.986;2023-01-28T05:59:39;35.45;;;20.23;;
70313;SDS011;57725;47.526;18.986;2023-01-28T06:02:06;34.00;;;18.75;;
70313;SDS011;57725;47.526;18.986;2023-01-28T06:04:34;30.27;;;18.15;;
70313;SDS011;57725;47.526;18.986;2023-01-28T06:07:03;33.83;;;19.23;;
70313;SDS011;57725;47.526;18.986;2023-01-28T06:09:28;33.83;;;19.35;;
70313;SDS011;57725;47.526;18.986;2023-01-28T06:11:56;35.70;;;18.73;;
70313;SDS011;57725;47.526;18.986;2023-01-28T06:14:21;36.80;;;19.85;;
70313;SDS011;57725;47.526;18.986;2023-01-28T06:16:49;33.50;;;19.65;;
70313;SDS011;57725;47.526;18.986;2023-01-28T06:19:18;33.25;;;19.30;;
70313;SDS011;57725;47.526;18.986;2023-01-28T06:21:44;33.30;;;19.38;;
70313;SDS011;57725;47.526;18.986;2023-01-28T06:24:09;37.78;;;20.27;;
70313;SDS011;57725;47.526;18.986;2023-01-28T06:26:34;34.80;;;19.63;;
70313;SDS011;57725;47.526;18.986;2023-01-28T06:29:00;35.80;;;20.65;;
70313;SDS011;57725;47.526;18.986;2023-01-28T06:31:25;34.53;;;19.85;;
70313;SDS011;57725;47.526;18.986;2023-01-28T06:33:50;37.03;;;20.13;;
70313;SDS011;57725;47.526;18.986;2023-01-28T06:36:18;35.70;;;19.35;;
70313;SDS011;57725;47.526;18.986;2023-01-28T06:38:48;32.70;;;18.23;;
70313;SDS011;57725;47.526;18.986;2023-01-28T06:41:14;33.78;;;19.50;;
70313;SDS011;57725;47.526;18.986;2023-01-28T06:43:39;33.53;;;20.00;;
70313;SDS011;57725;47.526;18.986;2023-01-28T06:46:04;35.75;;;20.63;;
70313;SDS011;57725;47.526;18.986;2023-01-28T06:48:32;33.33;;;20.33;;
70313;SDS011;57725;47.526;18.986;2023-01-28T06:50:58;34.88;;;20.13;;
70313;SDS011;57725;47.526;18.986;2023-01-28T06:53:25;36.35;;;19.98;;
70313;SDS011;57725;47.526;18.986;2023-01-28T06:55:50;35.00;;;20.58;;
70313;SDS011;57725;47.526;18.986;2023-01-28T06:58:16;38.83;;;20.42;;
70313;SDS011;57725;47.526;18.986;2023-01-28T07:00:42;37.70;;;21.35;;
70313;SDS011;57725;47.526;18.986;2023-01-28T07:03:07;36.65;;;20.52;;
70313;SDS011;57725;47.526;18.986;2023-01-28T07:05:35;35.45;;;20.48;;
70313;SDS011;57725;47.526;18.986;2023-01-28T07:08:00;35.10;;;19.60;;
70313;SDS011;57725;47.526;18.986;2023-01-28T07:10:26;36.97;;;21.95;;
70313;SDS011;57725;47.526;18.986;2023-01-28T07:12:52;34.78;;;20.13;;
70313;SDS011;57725;47.526;18.986;2023-01-28T07:15:22;34.95;;;20.60;;
70313;SDS011;57725;47.526;18.986;2023-01-28T07:17:48;37.55;;;20.52;;
70313;SDS011;57725;47.526;18.986;2023-01-28T07:20:15;36.70;;;20.83;;
70313;SDS011;57725;47.526;18.986;2023-01-28T07:22:41;37.25;;;20.67;;
70313;SDS011;57725;47.526;18.986;2023-01-28T07:25:08;35.72;;;20.65;;
70313;SDS011;57725;47.526;18.986;2023-01-28T07:27:35;36.03;;;20.50;;
70313;SDS011;57725;47.526;18.986;2023-01-28T07:30:03;38.97;;;21.13;;
70313;SDS011;57725;47.526;18.986;2023-01-28T07:32:31;34.58;;;20.17;;
70313;SDS011;57725;47.526;18.986;2023-01-28T07:34:58;38.80;;;21.45;;
70313;SDS011;57725;47.526;18.986;2023-01-28T07:37:24;41.70;;;22.02;;
70313;SDS011;57725;47.526;18.986;2023-01-28T07:39:49;38.33;;;20.83;;
70313;SDS011;57725;47.526;18.986;2023-01-28T07:42:14;35.20;;;20.55;;
70313;SDS011;57725;47.526;18.986;2023-01-28T07:44:40;36.78;;;21.23;;
70313;SDS011;57725;47.526;18.986;2023-01-28T07:47:08;37.63;;;21.85;;
70313;SDS011;57725;47.526;18.986;2023-01-28T07:49:39;37.83;;;20.08;;
70313;SDS011;57725;47.526;18.986;2023-01-28T07:52:07;38.92;;;21.77;;
70313;SDS011;57725;47.526;18.986;2023-01-28T07:54:33;37.00;;;19.70;;
70313;SDS011;57725;47.526;18.986;2023-01-28T07:56:58;37.17;;;20.70;;
70313;SDS011;57725;47.526;18.986;2023-01-28T07:59:24;36.65;;;22.27;;
70313;SDS011;57725;47.526;18.986;2023-01-28T08:01:52;36.38;;;20.02;;
70313;SDS011;57725;47.526;18.986;2023-01-28T08:04:18;38.28;;;22.00;;
70313;SDS011;57725;47.526;18.986;2023-01-28T08:06:44;40.03;;;21.35;;
70313;SDS011;57725;47.526;18.986;2023-01-28T08:09:11;35.85;;;20.23;;
70313;SDS011;57725;47.526;18.986;2023-01-28T08:11:40;35.17;;;19.80;;
70313;SDS011;57725;47.526;18.986;2023-01-28T08:14:08;35.28;;;20.50;;
70313;SDS011;57725;47.526;18.986;2023-01-28T08:16:36;39.28;;;21.90;;
70313;SDS011;57725;47.526;18.986;2023-01-28T08:19:04;35.17;;;20.42;;
70313;SDS011;57725;47.526;18.986;2023-01-28T08:21:32;35.92;;;21.92;;
70313;SDS011;57725;47.526;18.986;2023-01-28T08:23:57;33.65;;;19.65;;
70313;SDS011;57725;47.526;18.986;2023-01-28T08:26:23;34.50;;;20.42;;
70313;SDS011;57725;47.526;18.986;2023-01-28T08:28:51;35.70;;;20.25;;
70313;SDS011;57725;47.526;18.986;2023-01-28T08:31:16;34.75;;;20.65;;
70313;SDS011;57725;47.526;18.986;2023-01-28T08:33:44;36.28;;;21.20;;
70313;SDS011;57725;47.526;18.986;2023-01-28T08:36:14;35.67;;;20.45;;
70313;SDS011;57725;47.526;18.986;2023-01-28T08:38:42;37.20;;;20.63;;
70313;SDS011;57725;47.526;18.986;2023-01-28T08:41:10;34.88;;;19.70;;
70313;SDS011;57725;47.526;18.986;2023-01-28T08:43:35;37.65;;;21.10;;
70313;SDS011;57725;47.526;18.986;2023-01-28T08:46:05;37.72;;;20.10;;
70313;SDS011;57725;47.526;18.986;2023-01-28T08:48:33;35.20;;;20.05;;
70313;SDS011;57725;47.526;18.986;2023-01-28T08:50:59;34.72;;;19.58;;
70313;SDS011;57725;47.526;18.986;2023-01-28T08:53:26;39.00;;;20.52;;
70313;SDS011;57725;47.526;18.986;2023-01-28T08:55:52;35.03;;;20.75;;
70313;SDS011;57725;47.526;18.986;2023-01-28T08:58:18;32.80;;;18.50;;
70313;SDS011;57725;47.526;18.986;2023-01-28T09:00:45;35.13;;;19.83;;
70313;SDS011;57725;47.526;18.986;2023-01-28T09:03:13;34.03;;;18.60;;
70313;SDS011;57725;47.526;18.986;2023-01-28T09:05:39;35.15;;;20.60;;
70313;SDS011;57725;47.526;18.986;2023-01-28T09:08:09;34.33;;;19.63;;
70313;SDS011;57725;47.526;18.986;2023-01-28T09:10:41;33.13;;;20.17;;
70313;SDS011;57725;47.526;18.986;2023-01-28T09:13:11;35.60;;;20.25;;
70313;SDS011;57725;47.526;18.986;2023-01-28T09:15:44;36.42;;;20.40;;
70313;SDS011;57725;47.526;18.986;2023-01-28T09:18:09;29.25;;;17.85;;
70313;SDS011;57725;47.526;18.986;2023-01-28T09:20:35;34.67;;;19.42;;
70313;SDS011;57725;47.526;18.986;2023-01-28T09:23:04;35.30;;;20.45;;
70313;SDS011;57725;47.526;18.986;2023-01-28T09:25:30;35.75;;;18.95;;
70313;SDS011;57725;47.526;18.986;2023-01-28T09:27:56;34.10;;;20.20;;
70313;SDS011;57725;47.526;18.986;2023-01-28T09:30:24;34.92;;;19.65;;
70313;SDS011;57725;47.526;18.986;2023-01-28T09:32:53;35.65;;;19.80;;
70313;SDS011;57725;47.526;18.986;2023-01-28T09:35:19;36.25;;;19.48;;
70313;SDS011;57725;47.526;18.986;2023-01-28T09:37:45;33.75;;;19.42;;
70313;SDS011;57725;47.526;18.986;2023-01-28T09:45:31;32.13;;;19.40;;
70313;SDS011;57725;47.526;18.986;2023-01-28T09:47:59;26.88;;;17.00;;
70313;SDS011;57725;47.526;18.986;2023-01-28T09:50:43;33.45;;;18.42;;
70313;SDS011;57725;47.526;18.986;2023-01-28T09:56:10;33.42;;;18.45;;
70313;SDS011;57725;47.526;18.986;2023-01-28T09:58:38;29.10;;;17.55;;
70313;SDS011;57725;47.526;18.986;2023-01-28T10:01:17;35.20;;;19.02;;
70313;SDS011;57725;47.526;18.986;2023-01-28T10:06:53;31.95;;;18.55;;
70313;SDS011;57725;47.526;18.986;2023-01-28T10:18:18;30.60;;;17.27;;
70313;SDS011;57725;47.526;18.986;2023-01-28T10:20:54;31.73;;;18.52;;
70313;SDS011;57725;47.526;18.986;2023-01-28T10:23:28;33.33;;;18.58;;
70313;SDS011;57725;47.526;18.986;2023-01-28T10:25:56;29.90;;;18.88;;
70313;SDS011;57725;47.526;18.986;2023-01-28T10:28:24;29.02;;;16.95;;
70313;SDS011;57725;47.526;18.986;2023-01-28T10:30:52;27.95;;;16.88;;
70313;SDS011;57725;47.526;18.986;2023-01-28T10:33:19;30.23;;;18.27;;
70313;SDS011;57725;47.526;18.986;2023-01-28T10:35:53;30.27;;;17.30;;
70313;SDS011;57725;47.526;18.986;2023-01-28T10:38:23;30.70;;;18.13;;
70313;SDS011;57725;47.526;18.986;2023-01-28T10:40:57;30.17;;;17.38;;
70313;SDS011;57725;47.526;18.986;2023-01-28T10:43:29;28.88;;;17.30;;
70313;SDS011;57725;47.526;18.986;2023-01-28T10:51:11;30.95;;;18.02;;
70313;SDS011;57725;47.526;18.986;2023-01-28T10:53:38;27.63;;;17.08;;
70313;SDS011;57725;47.526;18.986;2023-01-28T10:56:09;30.15;;;16.80;;
70313;SDS011;57725;47.526;18.986;2023-01-28T11:02:01;30.30;;;17.13;;
70313;SDS011;57725;47.526;18.986;2023-01-28T11:04:30;29.73;;;17.10;;
70313;SDS011;57725;47.526;18.986;2023-01-28T11:09:34;29.05;;;16.50;;
70313;SDS011;57725;47.526;18.986;2023-01-28T11:12:12;30.45;;;16.75;;
70313;SDS011;57725;47.526;18.986;2023-01-28T11:14:59;26.38;;;15.77;;
70313;SDS011;57725;47.526;18.986;2023-01-28T11:17:27;27.30;;;15.75;;
70313;SDS011;57725;47.526;18.986;2023-01-28T11:19:58;30.92;;;17.98;;
70313;SDS011;57725;47.526;18.986;2023-01-28T11:22:35;26.92;;;15.65;;
70313;SDS011;57725;47.526;18.986;2023-01-28T11:25:12;28.90;;;17.23;;
70313;SDS011;57725;47.526;18.986;2023-01-28T11:27:48;26.95;;;15.38;;
70313;SDS011;57725;47.526;18.986;2023-01-28T11:30:22;26.00;;;15.65;;
70313;SDS011;57725;47.526;18.986;2023-01-28T11:38:55;26.27;;;16.08;;
70313;SDS011;57725;47.526;18.986;2023-01-28T11:41:31;27.90;;;15.73;;
70313;SDS011;57725;47.526;18.986;2023-01-28T11:44:12;28.40;;;16.55;;
70313;SDS011;57725;47.526;18.986;2023-01-28T11:46:43;26.92;;;17.00;;
70313;SDS011;57725;47.526;18.986;2023-01-28T11:50:01;24.30;;;15.73;;
70313;SDS011;57725;47.526;18.986;2023-01-28T11:57:53;24.58;;;15.18;;
70313;SDS011;57725;47.526;18.986;2023-01-28T12:05:34;23.50;;;14.95;;
70313;SDS011;57725;47.526;18.986;2023-01-28T12:13:36;27.00;;;16.25;;
70313;SDS011;57725;47.526;18.986;2023-01-28T12:16:08;25.35;;;15.27;;
70313;SDS011;57725;47.526;18.986;2023-01-28T12:27:10;25.80;;;15.10;;
70313;SDS011;57725;47.526;18.986;2023-01-28T12:41:19;21.75;;;13.30;;
70313;SDS011;57725;47.526;18.986;2023-01-28T12:46:50;24.77;;;15.20;;
70313;SDS011;57725;47.526;18.986;2023-01-28T12:49:24;24.95;;;15.07;;
70313;SDS011;57725;47.526;18.986;2023-01-28T12:57:27;26.00;;;14.93;;
70313;SDS011;57725;47.526;18.986;2023-01-28T13:02:40;26.05;;;14.80;;
70313;SDS011;57725;47.526;18.986;2023-01-28T13:07:51;22.27;;;14.13;;
70313;SDS011;57725;47.526;18.986;2023-01-28T13:10:28;25.13;;;14.50;;
70313;SDS011;57725;47.526;18.986;2023-01-28T13:13:01;24.55;;;14.15;;
70313;SDS011;57725;47.526;18.986;2023-01-28T13:15:28;25.17;;;16.38;;
70313;SDS011;57725;47.526;18.986;2023-01-28T13:23:01;22.92;;;14.60;;
70313;SDS011;57725;47.526;18.986;2023-01-28T13:25:31;24.15;;;14.13;;
70313;SDS011;57725;47.526;18.986;2023-01-28T13:28:04;22.92;;;14.13;;
70313;SDS011;57725;47.526;18.986;2023-01-28T13:30:32;23.98;;;13.90;;
70313;SDS011;57725;47.526;18.986;2023-01-28T13:33:05;23.48;;;14.40;;
70313;SDS011;57725;47.526;18.986;2023-01-28T13:35:52;21.25;;;13.93;;
70313;SDS011;57725;47.526;18.986;2023-01-28T13:38:21;24.83;;;15.25;;
70313;SDS011;57725;47.526;18.986;2023-01-28T13:40:55;25.75;;;15.02;;
70313;SDS011;57725;47.526;18.986;2023-01-28T13:46:02;21.95;;;13.73;;
70313;SDS011;57725;47.526;18.986;2023-01-28T13:48:34;22.85;;;13.48;;
70313;SDS011;57725;47.526;18.986;2023-01-28T13:51:26;24.77;;;14.70;;
70313;SDS011;57725;47.526;18.986;2023-01-28T13:53:57;23.17;;;14.02;;
70313;SDS011;57725;47.526;18.986;2023-01-28T13:56:30;23.35;;;14.40;;
70313;SDS011;57725;47.526;18.986;2023-01-28T14:10:13;22.52;;;14.25;;
70313;SDS011;57725;47.526;18.986;2023-01-28T14:18:12;24.08;;;13.70;;
70313;SDS011;57725;47.526;18.986;2023-01-28T14:20:46;23.75;;;14.50;;
70313;SDS011;57725;47.526;18.986;2023-01-28T14:23:16;23.30;;;15.30;;
70313;SDS011;57725;47.526;18.986;2023-01-28T14:28:14;22.65;;;14.07;;
70313;SDS011;57725;47.526;18.986;2023-01-28T14:30:54;23.63;;;14.57;;
70313;SDS011;57725;47.526;18.986;2023-01-28T14:33:30;23.15;;;13.80;;
70313;SDS011;57725;47.526;18.986;2023-01-28T14:36:03;25.27;;;15.07;;
70313;SDS011;57725;47.526;18.986;2023-01-28T14:38:29;23.70;;;15.07;;
70313;SDS011;57725;47.526;18.986;2023-01-28T14:41:09;24.90;;;14.55;;
70313;SDS011;57725;47.526;18.986;2023-01-28T14:43:47;23.30;;;13.77;;
70313;SDS011;57725;47.526;18.986;2023-01-28T14:48:49;26.90;;;16.45;;
70313;SDS011;57725;47.526;18.986;2023-01-28T14:54:01;24.67;;;14.55;;
70313;SDS011;57725;47.526;18.986;2023-01-28T14:59:41;23.25;;;14.50;;
70313;SDS011;57725;47.526;18.986;2023-01-28T15:02:26;24.27;;;14.65;;
70313;SDS011;57725;47.526;18.986;2023-01-28T15:04:53;25.83;;;13.93;;
70313;SDS011;57725;47.526;18.986;2023-01-28T15:07:22;23.55;;;14.43;;
70313;SDS011;57725;47.526;18.986;2023-01-28T15:09:59;21.67;;;14.02;;
70313;SDS011;57725;47.526;18.986;2023-01-28T15:12:39;23.00;;;13.45;;
70313;SDS011;57725;47.526;18.986;2023-01-28T15:15:09;24.35;;;14.07;;
70313;SDS011;57725;47.526;18.986;2023-01-28T15:17:38;21.65;;;13.05;;
70313;SDS011;57725;47.526;18.986;2023-01-28T15:20:05;22.10;;;13.20;;
70313;SDS011;57725;47.526;18.986;2023-01-28T15:22:34;21.83;;;13.90;;
70313;SDS011;57725;47.526;18.986;2023-01-28T15:24:59;22.17;;;14.05;;
70313;SDS011;57725;47.526;18.986;2023-01-28T15:27:28;22.30;;;14.35;;
70313;SDS011;57725;47.526;18.986;2023-01-28T15:29:57;23.08;;;13.93;;
70313;SDS011;57725;47.526;18.986;2023-01-28T15:32:27;23.15;;;14.23;;
70313;SDS011;57725;47.526;18.986;2023-01-28T15:34:59;22.77;;;14.02;;
70313;SDS011;57725;47.526;18.986;2023-01-28T15:37:28;22.65;;;14.40;;
70313;SDS011;57725;47.526;18.986;2023-01-28T15:40:00;23.63;;;14.18;;
70313;SDS011;57725;47.526;18.986;2023-01-28T15:42:30;22.17;;;14.40;;
70313;SDS011;57725;47.526;18.986;2023-01-28T15:44:58;22.45;;;12.98;;
70313;SDS011;57725;47.526;18.986;2023-01-28T15:47:27;24.00;;;14.57;;
70313;SDS011;57725;47.526;18.986;2023-01-28T15:50:00;21.63;;;13.85;;
70313;SDS011;57725;47.526;18.986;2023-01-28T15:52:29;21.83;;;14.00;;
70313;SDS011;57725;47.526;18.986;2023-01-28T15:55:02;20.25;;;13.23;;
70313;SDS011;57725;47.526;18.986;2023-01-28T15:57:29;23.20;;;14.48;;
70313;SDS011;57725;47.526;18.986;2023-01-28T16:00:17;24.60;;;15.25;;
70313;SDS011;57725;47.526;18.986;2023-01-28T16:02:47;24.42;;;14.48;;
70313;SDS011;57725;47.526;18.986;2023-01-28T16:07:58;19.13;;;11.73;;
70313;SDS011;57725;47.526;18.986;2023-01-28T16:10:30;23.70;;;14.02;;
70313;SDS011;57725;47.526;18.986;2023-01-28T16:12:59;23.27;;;14.02;;
70313;SDS011;57725;47.526;18.986;2023-01-28T16:15:28;22.40;;;14.00;;
70313;SDS011;57725;47.526;18.986;2023-01-28T16:17:53;23.45;;;14.38;;
70313;SDS011;57725;47.526;18.986;2023-01-28T16:20:26;23.42;;;14.85;;
70313;SDS011;57725;47.526;18.986;2023-01-28T16:22:59;22.48;;;13.80;;
70313;SDS011;57725;47.526;18.986;2023-01-28T16:25:32;23.48;;;14.88;;
70313;SDS011;57725;47.526;18.986;2023-01-28T16:28:01;24.80;;;14.70;;
70313;SDS011;57725;47.526;18.986;2023-01-28T16:30:27;23.85;;;13.40;;
70313;SDS011;57725;47.526;18.986;2023-01-28T16:32:53;22.15;;;14.40;;
70313;SDS011;57725;47.526;18.986;2023-01-28T16:35:23;22.67;;;14.25;;
70313;SDS011;57725;47.526;18.986;2023-01-28T16:37:54;23.73;;;14.50;;
70313;SDS011;57725;47.526;18.986;2023-01-28T16:40:23;23.65;;;14.88;;
70313;SDS011;57725;47.526;18.986;2023-01-28T16:42:50;24.17;;;15.00;;
70313;SDS011;57725;47.526;18.986;2023-01-28T16:45:22;23.90;;;14.35;;
70313;SDS011;57725;47.526;18.986;2023-01-28T16:47:49;25.08;;;15.50;;
70313;SDS011;57725;47.526;18.986;2023-01-28T16:50:18;23.45;;;14.77;;
70313;SDS011;57725;47.526;18.986;2023-01-28T16:52:47;22.70;;;14.45;;